Dades meteomassalio
Diari Summary for Marc 26, 2017 Units:  Metric    English   Both
« Previous Day
Next Day »
Diari Semanal Mensual Anual Personalitzat
  Maxima: Minima: Mijana:
Temperatura: 16.7 °C 3.6 °C 7.8 °C
Rosada: 9.3 °C 2.4 °C 5.3 °C
Humitat: 93 % 51 % 85 %
Velocitat del vent: 18.5 km/h 0.0 km/h 1.6 km/h
Racha vent: 18.5 km/h - -
Vent:- - ENE
Pressio: 1019.9 hPa 1017.5 hPa -
Pluja: 0.0 mm    
Historical Graphs
 
 
Tabular Data for Marc 26, 2017
Time Temperature Dew Point Pressure Wind Wind Speed Wind Gust Humidity Rainfall Rate (Hourly) solar Conditions
00:04 7.6 °C 5.2 °C 1017.8 hPa Calm     85 % 0.0 mm 0.0 W/m2 RA
00:09 7.6 °C 5.2 °C 1017.8 hPa Calm     85 % 0.0 mm 0.0 W/m2 CLR
00:14 7.6 °C 5.2 °C 1018.2 hPa Calm     85 % 0.0 mm 0.0 W/m2 CLR
00:19 7.6 °C 5.2 °C 1018.2 hPa Calm     85 % 0.0 mm 0.0 W/m2 CLR
00:24 7.6 °C 5.4 °C 1018.2 hPa Calm     86 % 0.0 mm 0.0 W/m2 CLR
00:29 7.6 °C 5.4 °C 1018.2 hPa Calm     86 % 0.0 mm 0.0 W/m2 CLR
00:34 7.6 °C 5.4 °C 1018.2 hPa Calm     86 % 0.0 mm 0.0 W/m2 CLR
00:39 7.6 °C 5.4 °C 1018.2 hPa Calm     86 % 0.0 mm 0.0 W/m2 CLR
00:44 7.6 °C 5.4 °C 1018.2 hPa Calm     86 % 0.0 mm 0.0 W/m2 CLR
00:49 7.7 °C 5.5 °C 1018.2 hPa Calm     86 % 0.0 mm 0.0 W/m2 CLR
00:50 7.7 °C 5.5 °C 1018.2 hPa Calm     86 % 0.0 mm 0.0 W/m2 CLR
00:55 7.7 °C 5.3 °C 1018.2 hPa Calm     85 % 0.0 mm 0.0 W/m2 CLR
00:56 7.7 °C 5.3 °C 1018.2 hPa Calm     85 % 0.0 mm 0.0 W/m2 CLR
01:01 7.8 °C 5.4 °C 1018.2 hPa Calm     85 % 0.0 mm 0.0 W/m2 CLR
01:06 7.8 °C 5.4 °C 1018.2 hPa Calm     85 % 0.0 mm 0.0 W/m2 CLR
01:11 7.8 °C 5.4 °C 1018.2 hPa Calm     85 % 0.0 mm 0.0 W/m2 CLR
01:16 7.8 °C 5.4 °C 1017.8 hPa Calm     85 % 0.0 mm 0.0 W/m2 CLR
01:21 7.6 °C 5.2 °C 1017.8 hPa Calm     85 % 0.0 mm 0.0 W/m2 CLR
01:26 7.5 °C 5.3 °C 1017.8 hPa Calm     86 % 0.0 mm 0.0 W/m2 CLR
01:31 7.4 °C 5.3 °C 1018.2 hPa Calm     86 % 0.0 mm 0.0 W/m2 CLR
01:36 7.4 °C 5.4 °C 1018.2 hPa Calm     87 % 0.0 mm 0.0 W/m2 CLR
01:41 7.3 °C 5.3 °C 1018.2 hPa Calm     87 % 0.0 mm 0.0 W/m2 CLR
01:46 7.3 °C 5.3 °C 1018.2 hPa Calm     87 % 0.0 mm 0.0 W/m2 CLR
01:51 7.3 °C 5.3 °C 1018.2 hPa Calm     87 % 0.0 mm 0.0 W/m2 CLR
01:56 7.2 °C 5.2 °C 1018.2 hPa Calm     87 % 0.0 mm 0.0 W/m2 CLR
03:01 7.2 °C 5.2 °C 1017.8 hPa Calm     87 % 0.0 mm 0.0 W/m2 CLR
03:06 7.1 °C 5.1 °C 1017.8 hPa Calm     87 % 0.0 mm 0.0 W/m2 CLR
03:11 7.1 °C 5.2 °C 1017.8 hPa Calm     88 % 0.0 mm 0.0 W/m2 CLR
03:16 6.9 °C 4.9 °C 1017.8 hPa Calm     87 % 0.0 mm 0.0 W/m2 CLR
03:21 6.9 °C 5.1 °C 1017.8 hPa Calm     88 % 0.0 mm 0.0 W/m2 CLR
03:26 6.8 °C 5.0 °C 1017.8 hPa Calm     88 % 0.0 mm 0.0 W/m2 CLR
03:31 6.7 °C 4.9 °C 1017.8 hPa Calm     88 % 0.0 mm 0.0 W/m2 CLR
03:36 6.6 °C 4.8 °C 1017.8 hPa Calm     88 % 0.0 mm 0.0 W/m2 CLR
03:41 6.5 °C 4.8 °C 1017.8 hPa Calm     89 % 0.0 mm 0.0 W/m2 CLR
03:46 6.4 °C 4.8 °C 1017.8 hPa Calm     89 % 0.0 mm 0.0 W/m2 CLR
03:51 6.4 °C 4.7 °C 1017.8 hPa Calm     89 % 0.0 mm 0.0 W/m2 CLR
03:56 6.4 °C 4.7 °C 1017.8 hPa Calm     89 % 0.0 mm 0.0 W/m2 CLR
04:01 6.4 °C 4.7 °C 1017.8 hPa Calm     89 % 0.0 mm 0.0 W/m2 CLR
04:06 6.4 °C 4.7 °C 1017.8 hPa Calm     89 % 0.0 mm 0.0 W/m2 CLR
04:11 6.4 °C 4.9 °C 1017.8 hPa Calm     90 % 0.0 mm 0.0 W/m2 CLR
04:16 6.4 °C 4.9 °C 1017.8 hPa Calm     90 % 0.0 mm 0.0 W/m2 CLR
04:21 6.4 °C 4.9 °C 1017.8 hPa Calm     90 % 0.0 mm 0.0 W/m2 CLR
04:26 6.4 °C 4.9 °C 1017.8 hPa Calm     90 % 0.0 mm 0.0 W/m2 CLR
04:31 6.4 °C 4.9 °C 1017.8 hPa Calm     90 % 0.0 mm 0.0 W/m2 CLR
04:36 6.4 °C 4.9 °C 1017.8 hPa Calm     90 % 0.0 mm 0.0 W/m2 CLR
04:41 6.4 °C 4.9 °C 1017.8 hPa Calm     90 % 0.0 mm 0.0 W/m2 CLR
04:46 6.4 °C 4.9 °C 1017.8 hPa Calm     90 % 0.0 mm 0.0 W/m2 CLR
04:51 6.3 °C 4.8 °C 1017.8 hPa Calm     90 % 0.0 mm 0.0 W/m2 CLR
04:56 6.3 °C 4.8 °C 1017.8 hPa Calm     90 % 0.0 mm 0.0 W/m2 CLR
05:01 6.3 °C 4.8 °C 1017.8 hPa Calm     90 % 0.0 mm 0.0 W/m2 CLR
05:06 6.2 °C 4.7 °C 1017.8 hPa Calm     90 % 0.0 mm 0.0 W/m2 CLR
05:11 6.2 °C 4.7 °C 1018.2 hPa Calm     90 % 0.0 mm 0.0 W/m2 CLR
05:16 6.1 °C 4.6 °C 1017.8 hPa Calm     90 % 0.0 mm 0.0 W/m2 CLR
05:21 6.1 °C 4.6 °C 1017.8 hPa Calm     90 % 0.0 mm 0.0 W/m2 CLR
05:26 6.1 °C 4.6 °C 1017.8 hPa Calm     90 % 0.0 mm 0.0 W/m2 CLR
05:31 6.0 °C 4.5 °C 1017.8 hPa Calm     90 % 0.0 mm 0.0 W/m2 CLR
05:36 6.0 °C 4.7 °C 1017.8 hPa Calm     91 % 0.0 mm 0.0 W/m2 CLR
05:42 6.1 °C 4.7 °C 1017.8 hPa Calm     91 % 0.0 mm 0.0 W/m2 CLR
05:47 6.1 °C 4.8 °C 1017.8 hPa Calm     91 % 0.0 mm 0.0 W/m2 CLR
05:52 6.1 °C 4.8 °C 1018.2 hPa Calm     91 % 0.0 mm 0.0 W/m2 CLR
05:57 6.0 °C 4.7 °C 1018.2 hPa Calm     91 % 0.0 mm 0.0 W/m2 CLR
06:02 5.9 °C 4.6 °C 1018.2 hPa Calm     91 % 0.0 mm 0.0 W/m2 CLR
06:07 5.8 °C 4.3 °C 1017.8 hPa Calm     90 % 0.0 mm 0.0 W/m2 CLR
06:12 5.7 °C 4.2 °C 1017.8 hPa Calm     90 % 0.0 mm 0.0 W/m2 CLR
06:17 5.5 °C 4.0 °C 1018.2 hPa Calm     90 % 0.0 mm 0.0 W/m2 CLR
06:22 5.3 °C 3.8 °C 1018.2 hPa Calm     90 % 0.0 mm 0.0 W/m2 CLR
06:27 5.2 °C 3.8 °C 1018.2 hPa Calm     91 % 0.0 mm 0.0 W/m2 CLR
06:32 5.1 °C 3.8 °C 1018.2 hPa Calm     91 % 0.0 mm 0.0 W/m2 CLR
06:37 5.1 °C 3.8 °C 1018.2 hPa Calm     91 % 0.0 mm 0.0 W/m2 CLR
06:42 5.1 °C 3.7 °C 1018.2 hPa Calm     91 % 0.0 mm 0.0 W/m2 CLR
06:47 4.9 °C 3.6 °C 1018.2 hPa Calm     91 % 0.0 mm 0.0 W/m2 CLR
06:52 4.9 °C 3.6 °C 1018.2 hPa Calm     91 % 0.0 mm 0.0 W/m2 CLR
06:57 4.8 °C 3.5 °C 1018.5 hPa Calm     91 % 0.0 mm 0.0 W/m2 CLR
07:02 4.7 °C 3.4 °C 1018.5 hPa Calm     91 % 0.0 mm 0.0 W/m2 CLR
07:07 4.7 °C 3.3 °C 1018.5 hPa Calm     91 % 0.0 mm 0.0 W/m2 CLR
07:12 4.6 °C 3.3 °C 1018.5 hPa Calm     91 % 0.0 mm 0.0 W/m2 CLR
07:17 4.5 °C 3.2 °C 1018.5 hPa Calm     91 % 0.0 mm 0.0 W/m2 CLR
07:22 4.4 °C 3.1 °C 1018.5 hPa Calm     91 % 0.0 mm 0.0 W/m2 CLR
07:27 4.3 °C 3.0 °C 1018.5 hPa Calm     91 % 0.0 mm 0.0 W/m2 CLR
07:32 4.2 °C 2.9 °C 1018.5 hPa Calm     91 % 0.0 mm 0.0 W/m2 CLR
07:37 4.1 °C 2.7 °C 1018.8 hPa Calm     91 % 0.0 mm 0.0 W/m2 CLR
07:42 3.9 °C 2.6 °C 1018.8 hPa Calm     91 % 0.0 mm 0.0 W/m2 OVC
07:47 3.9 °C 2.7 °C 1018.8 hPa Calm     92 % 0.0 mm 0.0 W/m2 OVC
07:52 3.8 °C 2.7 °C 1018.8 hPa Calm     92 % 0.0 mm 0.0 W/m2 OVC
07:57 3.7 °C 2.6 °C 1018.5 hPa Calm     92 % 0.0 mm 7.0 W/m2 BKN
08:02 3.6 °C 2.4 °C 1018.8 hPa Calm     92 % 0.0 mm 12.0 W/m2 BKN
08:07 3.6 °C 2.4 °C 1019.2 hPa Calm     92 % 0.0 mm 18.0 W/m2 BKN
08:12 3.6 °C 2.4 °C 1019.2 hPa Calm     92 % 0.0 mm 21.0 W/m2 BKN
08:17 3.6 °C 2.4 °C 1019.2 hPa Calm     92 % 0.0 mm 25.0 W/m2 BKN
08:22 3.7 °C 2.6 °C 1019.2 hPa Calm     92 % 0.0 mm 28.0 W/m2 BKN
08:27 3.7 °C 2.5 °C 1019.2 hPa Calm     92 % 0.0 mm 33.0 W/m2 BKN
08:32 3.6 °C 2.4 °C 1019.2 hPa Calm     92 % 0.0 mm 33.0 W/m2 BKN
08:37 3.6 °C 2.4 °C 1019.5 hPa Calm     92 % 0.0 mm 37.0 W/m2 BKN
08:42 3.6 °C 2.4 °C 1019.5 hPa Calm     92 % 0.0 mm 40.0 W/m2 BKN
08:47 3.6 °C 2.4 °C 1019.5 hPa Calm     92 % 0.0 mm 42.0 W/m2 BKN
08:52 3.7 °C 2.5 °C 1019.2 hPa Calm     92 % 0.0 mm 62.0 W/m2 SCT
08:57 3.8 °C 2.6 °C 1019.2 hPa Calm     92 % 0.0 mm 97.0 W/m2 SCT
09:02 4.0 °C 2.9 °C 1019.2 hPa Calm     93 % 0.0 mm 130.0 W/m2 FEW
09:07 4.2 °C 3.1 °C 1019.2 hPa Calm     92 % 0.0 mm 125.0 W/m2 CLR
09:09 4.2 °C 3.1 °C 1019.2 hPa Calm     92 % 0.0 mm 118.0 W/m2 CLR
09:14 4.5 °C 3.3 °C 1019.2 hPa Calm     92 % 0.0 mm 123.0 W/m2 CLR
09:19 4.8 °C 3.8 °C 1019.2 hPa Calm     93 % 0.0 mm 174.0 W/m2 CLR
09:24 5.1 °C 3.9 °C 1019.2 hPa Calm     92 % 0.0 mm 132.0 W/m2 CLR
09:29 5.3 °C 4.1 °C 1019.5 hPa Calm     92 % 0.0 mm 202.0 W/m2 CLR
09:34 5.7 °C 4.4 °C 1019.5 hPa Calm     92 % 0.0 mm 292.0 W/m2 CLR
09:39 6.1 °C 4.9 °C 1019.2 hPa Calm     92 % 0.0 mm 255.0 W/m2 CLR
09:44 6.4 °C 5.0 °C 1019.2 hPa Calm     91 % 0.0 mm 234.0 W/m2 CLR
09:49 6.7 °C 5.3 °C 1019.2 hPa Calm     91 % 0.0 mm 243.0 W/m2 CLR
09:54 7.0 °C 5.4 °C 1019.2 hPa Calm     90 % 0.0 mm 359.0 W/m2 CLR
09:59 7.3 °C 5.8 °C 1019.2 hPa Calm     90 % 0.0 mm 265.0 W/m2 CLR
10:04 7.6 °C 5.7 °C 1019.5 hPa Calm     88 % 0.0 mm 265.0 W/m2 CLR
10:09 7.7 °C 5.8 °C 1019.5 hPa Calm     88 % 0.0 mm 220.0 W/m2 CLR
10:14 7.8 °C 5.7 °C 1019.5 hPa Calm     87 % 0.0 mm 221.0 W/m2 CLR
10:19 7.7 °C 5.7 °C 1019.5 hPa Calm     87 % 0.0 mm 237.0 W/m2 CLR
10:24 7.7 °C 5.7 °C 1019.5 hPa Calm     87 % 0.0 mm 258.0 W/m2 CLR
10:29 7.8 °C 5.7 °C 1019.5 hPa Calm     87 % 0.0 mm 260.0 W/m2 CLR
10:34 7.9 °C 5.9 °C 1019.5 hPa Calm     87 % 0.0 mm 227.0 W/m2 CLR
10:39 8.1 °C 6.1 °C 1019.5 hPa Calm     87 % 0.0 mm 276.0 W/m2 CLR
10:44 8.4 °C 6.3 °C 1019.5 hPa Calm     87 % 0.0 mm 392.0 W/m2 CLR
10:49 8.8 °C 6.6 °C 1019.5 hPa Calm     86 % 0.0 mm 473.0 W/m2 CLR
10:54 9.1 °C 6.8 °C 1019.9 hPa ENE 5.6 km/h 5.6 km/h 86 % 0.0 mm 345.0 W/m2 CLR
10:59 9.1 °C 6.9 °C 1019.9 hPa Calm     86 % 0.0 mm 318.0 W/m2 CLR
11:04 9.2 °C 7.0 °C 1019.5 hPa Calm     86 % 0.0 mm 417.0 W/m2 CLR
11:09 9.5 °C 7.3 °C 1019.5 hPa Calm     86 % 0.0 mm 571.0 W/m2 CLR
11:14 9.9 °C 7.6 °C 1019.5 hPa Calm     85 % 0.0 mm 557.0 W/m2 CLR
11:19 10.4 °C 7.8 °C 1019.5 hPa Calm     84 % 0.0 mm 571.0 W/m2 CLR
11:24 10.7 °C 7.9 °C 1019.5 hPa Calm     83 % 0.0 mm 584.0 W/m2 CLR
11:29 11.0 °C 7.9 °C 1019.5 hPa Calm     81 % 0.0 mm 596.0 W/m2 CLR
11:34 11.2 °C 8.1 °C 1019.5 hPa Calm     81 % 0.0 mm 617.0 W/m2 CLR
11:39 11.6 °C 8.2 °C 1019.2 hPa Calm     80 % 0.0 mm 619.0 W/m2 CLR
11:44 11.7 °C 8.2 °C 1019.2 hPa Calm     79 % 0.0 mm 628.0 W/m2 CLR
11:49 11.8 °C 8.3 °C 1019.2 hPa NE 8.0 km/h 8.0 km/h 79 % 0.0 mm 606.0 W/m2 CLR
11:54 11.9 °C 8.2 °C 1019.2 hPa NNE 3.7 km/h 3.7 km/h 78 % 0.0 mm 631.0 W/m2 CLR
11:59 12.2 °C 8.7 °C 1019.2 hPa NE 9.7 km/h 9.7 km/h 79 % 0.0 mm 642.0 W/m2 CLR
12:04 12.4 °C 8.4 °C 1019.2 hPa NNE 5.6 km/h 5.6 km/h 77 % 0.0 mm 680.0 W/m2 CLR
12:09 12.5 °C 8.6 °C 1019.2 hPa NNE 5.6 km/h 5.6 km/h 77 % 0.0 mm 719.0 W/m2 CLR
12:14 12.8 °C 8.7 °C 1018.8 hPa North 7.4 km/h 7.4 km/h 76 % 0.0 mm 698.0 W/m2 CLR
12:19 13.1 °C 9.3 °C 1018.8 hPa NE 11.1 km/h 11.1 km/h 78 % 0.0 mm 656.0 W/m2 CLR
12:24 13.3 °C 9.0 °C 1018.8 hPa ENE 7.4 km/h 7.4 km/h 75 % 0.0 mm 559.0 W/m2 CLR
12:29 13.7 °C 8.9 °C 1018.8 hPa NE 8.0 km/h 8.0 km/h 73 % 0.0 mm 606.0 W/m2 CLR
12:34 13.8 °C 8.8 °C 1018.8 hPa East 6.4 km/h 6.4 km/h 72 % 0.0 mm 427.0 W/m2 CLR
12:39 13.9 °C 8.7 °C 1018.5 hPa NE 9.3 km/h 9.3 km/h 71 % 0.0 mm 410.0 W/m2 CLR
12:44 14.0 °C 8.8 °C 1018.5 hPa NE 18.5 km/h 18.5 km/h 71 % 0.0 mm 446.0 W/m2 CLR
12:49 14.2 °C 8.6 °C 1018.5 hPa ENE 11.3 km/h 11.3 km/h 69 % 0.0 mm 638.0 W/m2 CLR
12:54 14.4 °C 8.6 °C 1018.5 hPa ENE 13.0 km/h 13.0 km/h 68 % 0.0 mm 563.0 W/m2 CLR
12:59 14.5 °C 8.4 °C 1018.5 hPa ENE 14.8 km/h 14.8 km/h 67 % 0.0 mm 262.0 W/m2 CLR
13:04 14.4 °C 8.4 °C 1018.5 hPa ENE 4.8 km/h 4.8 km/h 67 % 0.0 mm 538.0 W/m2 CLR
13:09 14.6 °C 8.8 °C 1018.5 hPa ENE 13.0 km/h 13.0 km/h 68 % 0.0 mm 483.0 W/m2 CLR
13:14 14.9 °C 8.1 °C 1018.5 hPa NE 7.4 km/h 7.4 km/h 64 % 0.0 mm 657.0 W/m2 CLR
13:19 15.2 °C 8.7 °C 1018.2 hPa ENE 11.1 km/h 11.1 km/h 65 % 0.0 mm 399.0 W/m2 CLR
13:24 15.7 °C 8.9 °C 1018.2 hPa ENE 9.3 km/h 9.3 km/h 64 % 0.0 mm 844.0 W/m2 CLR
13:29 15.8 °C 7.6 °C 1018.2 hPa East 11.1 km/h 11.1 km/h 58 % 0.0 mm 462.0 W/m2 CLR
13:34 15.8 °C 8.0 °C 1017.8 hPa NNE 9.3 km/h 9.3 km/h 60 % 0.0 mm 577.0 W/m2 CLR
13:39 16.2 °C 6.9 °C 1017.8 hPa SE 3.7 km/h   54 % 0.0 mm 633.0 W/m2 CLR
13:44 16.3 °C 6.7 °C 1017.8 hPa East 6.4 km/h 6.4 km/h 53 % 0.0 mm 490.0 W/m2 CLR
13:49 16.3 °C 7.3 °C 1017.8 hPa ENE 5.6 km/h 5.6 km/h 55 % 0.0 mm 508.0 W/m2 CLR
13:55 16.6 °C 7.5 °C 1017.8 hPa ENE 11.1 km/h 11.1 km/h 55 % 0.0 mm 814.0 W/m2 CLR
14:00 16.7 °C 6.5 °C 1017.5 hPa ENE 18.5 km/h 18.5 km/h 51 % 0.0 mm 770.0 W/m2 CLR
Lo Temps de Massalio
Compliments of Weather Underground - 768 kb